sensor_id;sensor_type;location;lat;lon;timestamp;temperature;humidity
16879;DHT22;8556;52.218;9.884;2023-04-06T00:00:15;0.10;99.90
16879;DHT22;8556;52.218;9.884;2023-04-06T00:02:42;-0.10;99.90
16879;DHT22;8556;52.218;9.884;2023-04-06T00:05:09;-0.30;99.90
16879;DHT22;8556;52.218;9.884;2023-04-06T00:07:35;-0.40;99.90
16879;DHT22;8556;52.218;9.884;2023-04-06T00:10:03;-0.40;99.90
16879;DHT22;8556;52.218;9.884;2023-04-06T00:12:30;-0.30;99.90
16879;DHT22;8556;52.218;9.884;2023-04-06T00:14:57;-0.30;99.90
16879;DHT22;8556;52.218;9.884;2023-04-06T00:17:25;-0.30;99.90
16879;DHT22;8556;52.218;9.884;2023-04-06T00:19:52;-0.40;99.90
16879;DHT22;8556;52.218;9.884;2023-04-06T00:22:19;-0.30;99.90
16879;DHT22;8556;52.218;9.884;2023-04-06T00:24:46;-0.50;99.90
16879;DHT22;8556;52.218;9.884;2023-04-06T00:27:13;-0.50;99.90
16879;DHT22;8556;52.218;9.884;2023-04-06T00:29:40;-0.50;99.90
16879;DHT22;8556;52.218;9.884;2023-04-06T00:32:07;-0.40;99.90
16879;DHT22;8556;52.218;9.884;2023-04-06T00:34:35;-0.40;99.90
16879;DHT22;8556;52.218;9.884;2023-04-06T00:37:02;-0.50;99.90
16879;DHT22;8556;52.218;9.884;2023-04-06T00:39:29;-0.50;99.90
16879;DHT22;8556;52.218;9.884;2023-04-06T00:41:56;-0.60;99.90
16879;DHT22;8556;52.218;9.884;2023-04-06T00:44:23;-0.50;99.90
16879;DHT22;8556;52.218;9.884;2023-04-06T00:46:50;-0.60;99.90
16879;DHT22;8556;52.218;9.884;2023-04-06T00:49:17;-0.70;99.90
16879;DHT22;8556;52.218;9.884;2023-04-06T00:51:46;-0.80;99.90
16879;DHT22;8556;52.218;9.884;2023-04-06T00:54:12;-0.70;99.90
16879;DHT22;8556;52.218;9.884;2023-04-06T00:56:41;-0.90;99.90
16879;DHT22;8556;52.218;9.884;2023-04-06T00:59:10;-0.90;99.90
16879;DHT22;8556;52.218;9.884;2023-04-06T01:01:37;-0.90;99.90
16879;DHT22;8556;52.218;9.884;2023-04-06T01:04:03;-0.70;99.90
16879;DHT22;8556;52.218;9.884;2023-04-06T01:06:30;-0.60;99.90
16879;DHT22;8556;52.218;9.884;2023-04-06T01:08:59;-0.40;99.90
16879;DHT22;8556;52.218;9.884;2023-04-06T01:11:26;-0.40;99.90
16879;DHT22;8556;52.218;9.884;2023-04-06T01:13:53;-0.40;99.90
16879;DHT22;8556;52.218;9.884;2023-04-06T01:16:20;-0.60;99.90
16879;DHT22;8556;52.218;9.884;2023-04-06T01:18:47;-0.60;99.90
16879;DHT22;8556;52.218;9.884;2023-04-06T01:21:14;-0.60;99.90
16879;DHT22;8556;52.218;9.884;2023-04-06T01:23:44;-0.60;99.90
16879;DHT22;8556;52.218;9.884;2023-04-06T01:26:12;-0.90;99.90
16879;DHT22;8556;52.218;9.884;2023-04-06T01:28:39;-1.10;99.90
16879;DHT22;8556;52.218;9.884;2023-04-06T01:31:06;-1.20;99.90
16879;DHT22;8556;52.218;9.884;2023-04-06T01:33:34;-1.20;99.90
16879;DHT22;8556;52.218;9.884;2023-04-06T01:36:01;-1.20;99.90
16879;DHT22;8556;52.218;9.884;2023-04-06T01:38:28;-1.00;99.90
16879;DHT22;8556;52.218;9.884;2023-04-06T01:40:56;-0.70;99.90
16879;DHT22;8556;52.218;9.884;2023-04-06T01:43:23;-0.80;99.90
16879;DHT22;8556;52.218;9.884;2023-04-06T01:45:50;-1.00;99.90
16879;DHT22;8556;52.218;9.884;2023-04-06T01:48:17;-1.00;99.90
16879;DHT22;8556;52.218;9.884;2023-04-06T01:50:43;-0.80;99.90
16879;DHT22;8556;52.218;9.884;2023-04-06T01:53:10;-0.70;99.90
16879;DHT22;8556;52.218;9.884;2023-04-06T01:55:37;-0.90;99.90
16879;DHT22;8556;52.218;9.884;2023-04-06T01:58:06;-1.00;99.90
16879;DHT22;8556;52.218;9.884;2023-04-06T02:00:33;-1.10;99.90
16879;DHT22;8556;52.218;9.884;2023-04-06T02:02:59;-1.10;99.90
16879;DHT22;8556;52.218;9.884;2023-04-06T02:05:27;-1.00;99.90
16879;DHT22;8556;52.218;9.884;2023-04-06T02:07:54;-1.10;99.90
16879;DHT22;8556;52.218;9.884;2023-04-06T02:10:22;-1.10;99.90
16879;DHT22;8556;52.218;9.884;2023-04-06T02:12:49;-1.10;99.90
16879;DHT22;8556;52.218;9.884;2023-04-06T02:15:17;-1.20;99.90
16879;DHT22;8556;52.218;9.884;2023-04-06T02:17:44;-1.10;99.90
16879;DHT22;8556;52.218;9.884;2023-04-06T02:20:11;-1.10;99.90
16879;DHT22;8556;52.218;9.884;2023-04-06T02:22:39;-1.00;99.90
16879;DHT22;8556;52.218;9.884;2023-04-06T02:25:06;-1.00;99.90
16879;DHT22;8556;52.218;9.884;2023-04-06T02:27:34;-1.20;99.90
16879;DHT22;8556;52.218;9.884;2023-04-06T02:30:01;-1.30;99.90
16879;DHT22;8556;52.218;9.884;2023-04-06T02:32:29;-1.20;99.90
16879;DHT22;8556;52.218;9.884;2023-04-06T02:34:56;-1.30;99.90
16879;DHT22;8556;52.218;9.884;2023-04-06T02:37:23;-1.40;99.90
16879;DHT22;8556;52.218;9.884;2023-04-06T02:39:50;-1.50;99.90
16879;DHT22;8556;52.218;9.884;2023-04-06T02:42:17;-1.60;99.90
16879;DHT22;8556;52.218;9.884;2023-04-06T02:44:44;-1.50;99.90
16879;DHT22;8556;52.218;9.884;2023-04-06T02:47:11;-1.70;99.90
16879;DHT22;8556;52.218;9.884;2023-04-06T02:49:39;-1.70;99.90
16879;DHT22;8556;52.218;9.884;2023-04-06T02:52:06;-1.70;99.90
16879;DHT22;8556;52.218;9.884;2023-04-06T02:54:33;-1.80;99.90
16879;DHT22;8556;52.218;9.884;2023-04-06T02:57:00;-1.80;99.90
16879;DHT22;8556;52.218;9.884;2023-04-06T02:59:27;-1.80;99.90
16879;DHT22;8556;52.218;9.884;2023-04-06T03:01:54;-1.80;99.90
16879;DHT22;8556;52.218;9.884;2023-04-06T03:04:20;-1.80;99.90
16879;DHT22;8556;52.218;9.884;2023-04-06T03:06:53;-1.80;99.90
16879;DHT22;8556;52.218;9.884;2023-04-06T03:09:20;-1.70;99.90
16879;DHT22;8556;52.218;9.884;2023-04-06T03:11:47;-1.80;99.90
16879;DHT22;8556;52.218;9.884;2023-04-06T03:14:14;-1.90;99.90
16879;DHT22;8556;52.218;9.884;2023-04-06T03:16:42;-1.80;99.90
16879;DHT22;8556;52.218;9.884;2023-04-06T03:19:10;-1.50;99.90
16879;DHT22;8556;52.218;9.884;2023-04-06T03:21:36;-1.30;99.90
16879;DHT22;8556;52.218;9.884;2023-04-06T03:24:06;-1.20;99.90
16879;DHT22;8556;52.218;9.884;2023-04-06T03:26:32;-1.20;99.90
16879;DHT22;8556;52.218;9.884;2023-04-06T03:28:59;-1.00;99.90
16879;DHT22;8556;52.218;9.884;2023-04-06T03:31:26;-1.20;99.90
16879;DHT22;8556;52.218;9.884;2023-04-06T03:33:53;-1.10;99.90
16879;DHT22;8556;52.218;9.884;2023-04-06T03:36:20;-1.20;99.90
16879;DHT22;8556;52.218;9.884;2023-04-06T03:38:47;-1.50;99.90
16879;DHT22;8556;52.218;9.884;2023-04-06T03:41:15;-1.70;99.90
16879;DHT22;8556;52.218;9.884;2023-04-06T03:43:42;-1.90;99.90
16879;DHT22;8556;52.218;9.884;2023-04-06T03:46:09;-2.00;99.90
16879;DHT22;8556;52.218;9.884;2023-04-06T03:48:36;-1.80;99.90
16879;DHT22;8556;52.218;9.884;2023-04-06T03:51:03;-1.70;99.90
16879;DHT22;8556;52.218;9.884;2023-04-06T03:53:30;-1.90;99.90
16879;DHT22;8556;52.218;9.884;2023-04-06T03:55:57;-1.80;99.90
16879;DHT22;8556;52.218;9.884;2023-04-06T03:58:25;-1.70;99.90
16879;DHT22;8556;52.218;9.884;2023-04-06T04:00:52;-1.80;99.90
16879;DHT22;8556;52.218;9.884;2023-04-06T04:03:19;-1.80;99.90
16879;DHT22;8556;52.218;9.884;2023-04-06T04:05:47;-1.60;99.90
16879;DHT22;8556;52.218;9.884;2023-04-06T04:08:14;-1.50;99.90
16879;DHT22;8556;52.218;9.884;2023-04-06T04:10:40;-1.40;99.90
16879;DHT22;8556;52.218;9.884;2023-04-06T04:13:08;-1.40;99.90
16879;DHT22;8556;52.218;9.884;2023-04-06T04:15:36;-1.40;99.90
16879;DHT22;8556;52.218;9.884;2023-04-06T04:18:03;-1.30;99.90
16879;DHT22;8556;52.218;9.884;2023-04-06T04:20:30;-1.50;99.90
16879;DHT22;8556;52.218;9.884;2023-04-06T04:22:57;-1.60;99.90
16879;DHT22;8556;52.218;9.884;2023-04-06T04:25:24;-1.60;99.90
16879;DHT22;8556;52.218;9.884;2023-04-06T04:27:51;-1.60;99.90
16879;DHT22;8556;52.218;9.884;2023-04-06T04:30:18;-1.40;99.90
16879;DHT22;8556;52.218;9.884;2023-04-06T04:32:46;-1.30;99.90
16879;DHT22;8556;52.218;9.884;2023-04-06T04:35:13;-1.40;99.90
16879;DHT22;8556;52.218;9.884;2023-04-06T04:37:40;-1.50;99.90
16879;DHT22;8556;52.218;9.884;2023-04-06T04:40:08;-1.30;99.90
16879;DHT22;8556;52.218;9.884;2023-04-06T04:42:36;-1.20;99.90
16879;DHT22;8556;52.218;9.884;2023-04-06T04:45:03;-1.20;99.90
16879;DHT22;8556;52.218;9.884;2023-04-06T04:47:30;-1.20;99.90
16879;DHT22;8556;52.218;9.884;2023-04-06T04:49:58;-1.30;99.90
16879;DHT22;8556;52.218;9.884;2023-04-06T04:52:25;-1.40;99.90
16879;DHT22;8556;52.218;9.884;2023-04-06T04:54:52;-1.30;99.90
16879;DHT22;8556;52.218;9.884;2023-04-06T04:57:19;-1.50;99.90
16879;DHT22;8556;52.218;9.884;2023-04-06T04:59:46;-1.50;99.90
16879;DHT22;8556;52.218;9.884;2023-04-06T05:02:13;-1.30;99.90
16879;DHT22;8556;52.218;9.884;2023-04-06T05:04:40;-1.00;99.90
16879;DHT22;8556;52.218;9.884;2023-04-06T05:07:09;-0.70;99.90
16879;DHT22;8556;52.218;9.884;2023-04-06T05:09:36;-0.40;99.90
16879;DHT22;8556;52.218;9.884;2023-04-06T05:12:03;0.10;99.90
16879;DHT22;8556;52.218;9.884;2023-04-06T05:14:30;0.60;99.90
16879;DHT22;8556;52.218;9.884;2023-04-06T05:16:56;0.70;99.90
16879;DHT22;8556;52.218;9.884;2023-04-06T05:19:23;0.30;99.90
16879;DHT22;8556;52.218;9.884;2023-04-06T05:21:51;0.40;99.90
16879;DHT22;8556;52.218;9.884;2023-04-06T05:24:19;0.30;99.90
16879;DHT22;8556;52.218;9.884;2023-04-06T05:26:46;0.50;99.90
16879;DHT22;8556;52.218;9.884;2023-04-06T05:29:13;1.00;99.90
16879;DHT22;8556;52.218;9.884;2023-04-06T05:31:40;1.20;99.90
16879;DHT22;8556;52.218;9.884;2023-04-06T05:34:07;1.10;99.90
16879;DHT22;8556;52.218;9.884;2023-04-06T05:36:34;1.60;99.90
16879;DHT22;8556;52.218;9.884;2023-04-06T05:39:01;1.30;99.90
16879;DHT22;8556;52.218;9.884;2023-04-06T05:41:30;0.60;99.90
16879;DHT22;8556;52.218;9.884;2023-04-06T05:43:57;0.50;99.90
16879;DHT22;8556;52.218;9.884;2023-04-06T05:46:24;0.40;99.90
16879;DHT22;8556;52.218;9.884;2023-04-06T05:48:50;0.70;99.90
16879;DHT22;8556;52.218;9.884;2023-04-06T05:51:17;0.80;99.90
16879;DHT22;8556;52.218;9.884;2023-04-06T05:53:44;1.00;99.90
16879;DHT22;8556;52.218;9.884;2023-04-06T05:56:11;1.20;99.90
16879;DHT22;8556;52.218;9.884;2023-04-06T05:58:39;1.00;99.90
16879;DHT22;8556;52.218;9.884;2023-04-06T06:01:06;0.80;99.90
16879;DHT22;8556;52.218;9.884;2023-04-06T06:03:34;0.80;99.90
16879;DHT22;8556;52.218;9.884;2023-04-06T06:06:01;0.80;99.90
16879;DHT22;8556;52.218;9.884;2023-04-06T06:08:28;1.50;99.90
16879;DHT22;8556;52.218;9.884;2023-04-06T06:10:56;2.20;99.90
16879;DHT22;8556;52.218;9.884;2023-04-06T06:13:23;2.20;99.90
16879;DHT22;8556;52.218;9.884;2023-04-06T06:15:51;2.40;99.90
16879;DHT22;8556;52.218;9.884;2023-04-06T06:18:18;2.70;99.90
16879;DHT22;8556;52.218;9.884;2023-04-06T06:20:45;3.10;99.90
16879;DHT22;8556;52.218;9.884;2023-04-06T06:23:12;3.50;99.90
16879;DHT22;8556;52.218;9.884;2023-04-06T06:25:39;3.80;99.90
16879;DHT22;8556;52.218;9.884;2023-04-06T06:28:06;4.30;99.90
16879;DHT22;8556;52.218;9.884;2023-04-06T06:30:33;4.70;99.90
16879;DHT22;8556;52.218;9.884;2023-04-06T06:33:01;4.70;99.90
16879;DHT22;8556;52.218;9.884;2023-04-06T06:35:28;4.70;99.90
16879;DHT22;8556;52.218;9.884;2023-04-06T06:37:55;4.70;99.90
16879;DHT22;8556;52.218;9.884;2023-04-06T06:40:22;4.30;99.90
16879;DHT22;8556;52.218;9.884;2023-04-06T06:42:51;4.30;99.90
16879;DHT22;8556;52.218;9.884;2023-04-06T06:45:18;4.00;99.90
16879;DHT22;8556;52.218;9.884;2023-04-06T06:47:45;3.80;99.90
16879;DHT22;8556;52.218;9.884;2023-04-06T06:50:14;3.70;99.90
16879;DHT22;8556;52.218;9.884;2023-04-06T06:52:41;3.90;99.90
16879;DHT22;8556;52.218;9.884;2023-04-06T06:55:09;4.00;99.90
16879;DHT22;8556;52.218;9.884;2023-04-06T06:57:36;4.00;99.90
16879;DHT22;8556;52.218;9.884;2023-04-06T07:00:04;4.10;99.90
16879;DHT22;8556;52.218;9.884;2023-04-06T07:02:34;4.90;99.90
16879;DHT22;8556;52.218;9.884;2023-04-06T07:05:02;5.00;99.90
16879;DHT22;8556;52.218;9.884;2023-04-06T07:07:32;5.10;99.90
16879;DHT22;8556;52.218;9.884;2023-04-06T07:09:59;6.10;99.90
16879;DHT22;8556;52.218;9.884;2023-04-06T07:12:26;5.40;99.90
16879;DHT22;8556;52.218;9.884;2023-04-06T07:14:53;5.70;99.90
16879;DHT22;8556;52.218;9.884;2023-04-06T07:17:20;6.10;99.90
16879;DHT22;8556;52.218;9.884;2023-04-06T07:19:47;5.70;99.90
16879;DHT22;8556;52.218;9.884;2023-04-06T07:22:14;6.20;99.90
16879;DHT22;8556;52.218;9.884;2023-04-06T07:24:42;6.10;99.90
16879;DHT22;8556;52.218;9.884;2023-04-06T07:27:09;6.50;99.90
16879;DHT22;8556;52.218;9.884;2023-04-06T07:29:36;7.30;99.90
16879;DHT22;8556;52.218;9.884;2023-04-06T07:32:03;7.40;99.90
16879;DHT22;8556;52.218;9.884;2023-04-06T07:34:30;7.50;1.00
16879;DHT22;8556;52.218;9.884;2023-04-06T07:36:57;7.70;1.00
16879;DHT22;8556;52.218;9.884;2023-04-06T07:39:25;7.90;1.00
16879;DHT22;8556;52.218;9.884;2023-04-06T07:41:54;9.10;1.00
16879;DHT22;8556;52.218;9.884;2023-04-06T07:44:21;8.70;1.00
16879;DHT22;8556;52.218;9.884;2023-04-06T07:46:48;8.90;1.00
16879;DHT22;8556;52.218;9.884;2023-04-06T07:49:14;8.80;99.90
16879;DHT22;8556;52.218;9.884;2023-04-06T07:51:41;8.60;86.40
16879;DHT22;8556;52.218;9.884;2023-04-06T07:54:08;8.80;1.00
16879;DHT22;8556;52.218;9.884;2023-04-06T07:56:35;9.50;92.30
16879;DHT22;8556;52.218;9.884;2023-04-06T07:59:03;9.40;1.00
16879;DHT22;8556;52.218;9.884;2023-04-06T08:01:30;10.00;1.00
16879;DHT22;8556;52.218;9.884;2023-04-06T08:03:57;9.80;1.00
16879;DHT22;8556;52.218;9.884;2023-04-06T08:06:26;9.60;1.00
16879;DHT22;8556;52.218;9.884;2023-04-06T08:08:54;9.80;1.00
16879;DHT22;8556;52.218;9.884;2023-04-06T08:11:21;9.40;99.90
16879;DHT22;8556;52.218;9.884;2023-04-06T08:13:48;9.40;99.90
16879;DHT22;8556;52.218;9.884;2023-04-06T08:16:16;9.30;99.90
16879;DHT22;8556;52.218;9.884;2023-04-06T08:18:43;9.40;28.80
16879;DHT22;8556;52.218;9.884;2023-04-06T08:21:10;9.40;1.00
16879;DHT22;8556;52.218;9.884;2023-04-06T08:23:37;9.80;1.00
16879;DHT22;8556;52.218;9.884;2023-04-06T08:26:04;9.90;1.00
16879;DHT22;8556;52.218;9.884;2023-04-06T08:28:30;9.60;1.00
16879;DHT22;8556;52.218;9.884;2023-04-06T08:30:57;10.20;1.00
16879;DHT22;8556;52.218;9.884;2023-04-06T08:33:26;10.10;1.00
16879;DHT22;8556;52.218;9.884;2023-04-06T08:35:53;10.10;1.00
16879;DHT22;8556;52.218;9.884;2023-04-06T08:38:20;10.00;1.00
16879;DHT22;8556;52.218;9.884;2023-04-06T08:40:46;9.90;99.90
16879;DHT22;8556;52.218;9.884;2023-04-06T08:43:17;10.30;99.90
16879;DHT22;8556;52.218;9.884;2023-04-06T08:45:47;11.00;99.90
16879;DHT22;8556;52.218;9.884;2023-04-06T08:48:15;10.80;99.90
16879;DHT22;8556;52.218;9.884;2023-04-06T08:50:44;10.80;99.90
16879;DHT22;8556;52.218;9.884;2023-04-06T08:53:11;11.30;99.90
16879;DHT22;8556;52.218;9.884;2023-04-06T08:55:39;11.40;99.90
16879;DHT22;8556;52.218;9.884;2023-04-06T08:58:07;11.60;76.30
16879;DHT22;8556;52.218;9.884;2023-04-06T09:00:37;11.50;1.00
16879;DHT22;8556;52.218;9.884;2023-04-06T09:03:05;11.30;1.00
16879;DHT22;8556;52.218;9.884;2023-04-06T09:05:33;11.10;1.00
16879;DHT22;8556;52.218;9.884;2023-04-06T09:08:01;11.00;1.00
16879;DHT22;8556;52.218;9.884;2023-04-06T09:10:28;11.40;1.00
16879;DHT22;8556;52.218;9.884;2023-04-06T09:13:03;11.70;1.00
16879;DHT22;8556;52.218;9.884;2023-04-06T09:15:31;11.40;1.00
16879;DHT22;8556;52.218;9.884;2023-04-06T09:17:58;12.10;1.00
16879;DHT22;8556;52.218;9.884;2023-04-06T09:20:26;12.30;1.00
16879;DHT22;8556;52.218;9.884;2023-04-06T09:22:54;12.10;1.00
16879;DHT22;8556;52.218;9.884;2023-04-06T09:25:23;13.30;1.00
16879;DHT22;8556;52.218;9.884;2023-04-06T09:27:58;13.20;1.00
16879;DHT22;8556;52.218;9.884;2023-04-06T09:30:25;13.30;1.00
16879;DHT22;8556;52.218;9.884;2023-04-06T09:32:53;13.10;99.90
16879;DHT22;8556;52.218;9.884;2023-04-06T09:35:22;13.90;1.00
16879;DHT22;8556;52.218;9.884;2023-04-06T09:37:50;12.70;99.90
16879;DHT22;8556;52.218;9.884;2023-04-06T09:40:18;13.50;99.90
16879;DHT22;8556;52.218;9.884;2023-04-06T09:42:49;13.20;99.90
16879;DHT22;8556;52.218;9.884;2023-04-06T09:45:17;13.90;99.90
16879;DHT22;8556;52.218;9.884;2023-04-06T09:47:45;13.70;99.90
16879;DHT22;8556;52.218;9.884;2023-04-06T09:50:13;13.60;99.90
16879;DHT22;8556;52.218;9.884;2023-04-06T09:52:47;14.10;99.90
16879;DHT22;8556;52.218;9.884;2023-04-06T09:55:20;13.20;1.00
16879;DHT22;8556;52.218;9.884;2023-04-06T09:57:52;13.80;20.80
16879;DHT22;8556;52.218;9.884;2023-04-06T10:00:22;13.50;1.00
16879;DHT22;8556;52.218;9.884;2023-04-06T10:02:51;13.80;1.00
16879;DHT22;8556;52.218;9.884;2023-04-06T10:05:23;13.90;1.00
16879;DHT22;8556;52.218;9.884;2023-04-06T10:07:54;13.40;1.00
16879;DHT22;8556;52.218;9.884;2023-04-06T10:10:22;13.40;1.00
16879;DHT22;8556;52.218;9.884;2023-04-06T10:12:51;13.30;1.00
16879;DHT22;8556;52.218;9.884;2023-04-06T10:15:18;14.50;1.00
16879;DHT22;8556;52.218;9.884;2023-04-06T10:17:45;14.20;1.00
16879;DHT22;8556;52.218;9.884;2023-04-06T10:20:16;14.20;1.00
16879;DHT22;8556;52.218;9.884;2023-04-06T10:22:54;14.00;1.00
16879;DHT22;8556;52.218;9.884;2023-04-06T10:25:31;14.30;1.00
16879;DHT22;8556;52.218;9.884;2023-04-06T10:28:01;14.60;1.00
16879;DHT22;8556;52.218;9.884;2023-04-06T10:30:28;14.60;1.00
16879;DHT22;8556;52.218;9.884;2023-04-06T10:32:55;14.50;1.00
16879;DHT22;8556;52.218;9.884;2023-04-06T10:35:22;14.70;1.00
16879;DHT22;8556;52.218;9.884;2023-04-06T10:37:52;14.10;1.00
16879;DHT22;8556;52.218;9.884;2023-04-06T10:40:23;13.70;1.00
16879;DHT22;8556;52.218;9.884;2023-04-06T10:42:52;14.30;1.00
16879;DHT22;8556;52.218;9.884;2023-04-06T10:45:21;14.40;1.00
16879;DHT22;8556;52.218;9.884;2023-04-06T10:47:48;14.40;1.00
16879;DHT22;8556;52.218;9.884;2023-04-06T10:50:16;14.70;1.00
16879;DHT22;8556;52.218;9.884;2023-04-06T10:52:44;14.10;1.00
16879;DHT22;8556;52.218;9.884;2023-04-06T10:55:13;14.60;1.00
16879;DHT22;8556;52.218;9.884;2023-04-06T10:57:40;15.50;1.00
16879;DHT22;8556;52.218;9.884;2023-04-06T11:00:08;14.90;1.00
16879;DHT22;8556;52.218;9.884;2023-04-06T11:02:36;14.60;1.00
16879;DHT22;8556;52.218;9.884;2023-04-06T11:05:05;15.10;1.00
16879;DHT22;8556;52.218;9.884;2023-04-06T11:07:32;15.00;1.00
16879;DHT22;8556;52.218;9.884;2023-04-06T11:09:59;15.00;99.90
16879;DHT22;8556;52.218;9.884;2023-04-06T11:12:27;14.80;99.90
16879;DHT22;8556;52.218;9.884;2023-04-06T11:14:57;15.00;99.90
16879;DHT22;8556;52.218;9.884;2023-04-06T11:17:30;14.50;99.90
16879;DHT22;8556;52.218;9.884;2023-04-06T11:19:58;14.50;99.90
16879;DHT22;8556;52.218;9.884;2023-04-06T11:22:26;14.90;99.90
16879;DHT22;8556;52.218;9.884;2023-04-06T11:24:53;14.90;99.90
16879;DHT22;8556;52.218;9.884;2023-04-06T11:27:20;14.90;99.90
16879;DHT22;8556;52.218;9.884;2023-04-06T11:29:47;14.90;99.90
16879;DHT22;8556;52.218;9.884;2023-04-06T11:32:21;15.00;99.90
16879;DHT22;8556;52.218;9.884;2023-04-06T11:34:49;14.50;99.90
16879;DHT22;8556;52.218;9.884;2023-04-06T11:37:17;14.50;99.90
16879;DHT22;8556;52.218;9.884;2023-04-06T11:39:48;14.40;99.00
16879;DHT22;8556;52.218;9.884;2023-04-06T11:42:21;14.80;99.90
16879;DHT22;8556;52.218;9.884;2023-04-06T11:44:50;14.70;67.90
16879;DHT22;8556;52.218;9.884;2023-04-06T11:47:19;15.30;99.90
16879;DHT22;8556;52.218;9.884;2023-04-06T11:49:47;15.50;99.90
16879;DHT22;8556;52.218;9.884;2023-04-06T11:52:20;15.40;57.10
16879;DHT22;8556;52.218;9.884;2023-04-06T11:54:48;14.80;1.00
16879;DHT22;8556;52.218;9.884;2023-04-06T11:57:16;14.90;1.00
16879;DHT22;8556;52.218;9.884;2023-04-06T11:59:44;15.00;1.00
16879;DHT22;8556;52.218;9.884;2023-04-06T12:02:11;15.60;1.00
16879;DHT22;8556;52.218;9.884;2023-04-06T12:04:38;15.50;1.00
16879;DHT22;8556;52.218;9.884;2023-04-06T12:07:05;15.70;1.00
16879;DHT22;8556;52.218;9.884;2023-04-06T12:09:33;15.00;1.00
16879;DHT22;8556;52.218;9.884;2023-04-06T12:12:02;14.90;1.00
16879;DHT22;8556;52.218;9.884;2023-04-06T12:14:29;14.90;1.00
16879;DHT22;8556;52.218;9.884;2023-04-06T12:16:56;14.40;1.00
16879;DHT22;8556;52.218;9.884;2023-04-06T12:19:24;15.10;1.00
16879;DHT22;8556;52.218;9.884;2023-04-06T12:21:51;16.10;1.00
16879;DHT22;8556;52.218;9.884;2023-04-06T12:24:19;16.00;1.00
16879;DHT22;8556;52.218;9.884;2023-04-06T12:26:47;16.00;1.00
16879;DHT22;8556;52.218;9.884;2023-04-06T12:29:14;15.80;1.00
16879;DHT22;8556;52.218;9.884;2023-04-06T12:31:41;15.70;1.00
16879;DHT22;8556;52.218;9.884;2023-04-06T12:34:10;15.30;1.00
16879;DHT22;8556;52.218;9.884;2023-04-06T12:36:37;15.40;1.00
16879;DHT22;8556;52.218;9.884;2023-04-06T12:39:05;14.70;1.00
16879;DHT22;8556;52.218;9.884;2023-04-06T12:41:32;15.80;1.00
16879;DHT22;8556;52.218;9.884;2023-04-06T12:44:01;15.60;1.00
16879;DHT22;8556;52.218;9.884;2023-04-06T12:46:28;15.70;1.00
16879;DHT22;8556;52.218;9.884;2023-04-06T12:48:56;16.10;1.00
16879;DHT22;8556;52.218;9.884;2023-04-06T12:51:24;15.80;1.00
16879;DHT22;8556;52.218;9.884;2023-04-06T12:53:52;15.40;1.00
16879;DHT22;8556;52.218;9.884;2023-04-06T12:56:20;15.70;1.00
16879;DHT22;8556;52.218;9.884;2023-04-06T12:58:49;15.50;1.00
16879;DHT22;8556;52.218;9.884;2023-04-06T13:01:18;15.30;1.00
16879;DHT22;8556;52.218;9.884;2023-04-06T13:03:45;15.50;1.00
16879;DHT22;8556;52.218;9.884;2023-04-06T13:06:12;15.20;1.00
16879;DHT22;8556;52.218;9.884;2023-04-06T13:08:40;15.70;1.00
16879;DHT22;8556;52.218;9.884;2023-04-06T13:11:07;16.30;1.00
16879;DHT22;8556;52.218;9.884;2023-04-06T13:13:35;16.20;1.00
16879;DHT22;8556;52.218;9.884;2023-04-06T13:16:04;15.70;1.00
16879;DHT22;8556;52.218;9.884;2023-04-06T13:18:32;16.10;1.00
16879;DHT22;8556;52.218;9.884;2023-04-06T13:21:00;16.10;1.00
16879;DHT22;8556;52.218;9.884;2023-04-06T13:23:27;15.00;99.90
16879;DHT22;8556;52.218;9.884;2023-04-06T13:25:58;15.60;1.00
16879;DHT22;8556;52.218;9.884;2023-04-06T13:28:26;15.10;99.90
16879;DHT22;8556;52.218;9.884;2023-04-06T13:30:53;15.80;99.90
16879;DHT22;8556;52.218;9.884;2023-04-06T13:33:20;15.80;99.90
16879;DHT22;8556;52.218;9.884;2023-04-06T13:35:49;15.80;99.90
16879;DHT22;8556;52.218;9.884;2023-04-06T13:38:16;15.90;99.90
16879;DHT22;8556;52.218;9.884;2023-04-06T13:40:43;15.40;99.90
16879;DHT22;8556;52.218;9.884;2023-04-06T13:43:10;15.80;99.90
16879;DHT22;8556;52.218;9.884;2023-04-06T13:45:37;15.60;99.90
16879;DHT22;8556;52.218;9.884;2023-04-06T13:48:05;16.20;99.90
16879;DHT22;8556;52.218;9.884;2023-04-06T13:50:32;16.30;99.90
16879;DHT22;8556;52.218;9.884;2023-04-06T13:53:00;15.50;99.90
16879;DHT22;8556;52.218;9.884;2023-04-06T13:55:27;15.90;99.90
16879;DHT22;8556;52.218;9.884;2023-04-06T13:57:55;15.90;99.90
16879;DHT22;8556;52.218;9.884;2023-04-06T14:00:22;15.80;99.90
16879;DHT22;8556;52.218;9.884;2023-04-06T14:02:49;15.60;99.90
16879;DHT22;8556;52.218;9.884;2023-04-06T14:05:16;15.80;99.90
16879;DHT22;8556;52.218;9.884;2023-04-06T14:07:43;16.20;99.90
16879;DHT22;8556;52.218;9.884;2023-04-06T14:10:11;15.80;99.90
16879;DHT22;8556;52.218;9.884;2023-04-06T14:12:40;15.30;66.80
16879;DHT22;8556;52.218;9.884;2023-04-06T14:15:09;15.50;74.50
16879;DHT22;8556;52.218;9.884;2023-04-06T14:17:36;16.10;99.90
16879;DHT22;8556;52.218;9.884;2023-04-06T14:20:03;16.20;99.90
16879;DHT22;8556;52.218;9.884;2023-04-06T14:22:30;15.80;70.60
16879;DHT22;8556;52.218;9.884;2023-04-06T14:24:57;16.20;59.80
16879;DHT22;8556;52.218;9.884;2023-04-06T14:27:25;16.00;22.60
16879;DHT22;8556;52.218;9.884;2023-04-06T14:29:52;15.50;1.00
16879;DHT22;8556;52.218;9.884;2023-04-06T14:32:20;15.20;1.00
16879;DHT22;8556;52.218;9.884;2023-04-06T14:34:47;15.00;1.00
16879;DHT22;8556;52.218;9.884;2023-04-06T14:37:14;15.30;1.00
16879;DHT22;8556;52.218;9.884;2023-04-06T14:39:42;15.70;1.00
16879;DHT22;8556;52.218;9.884;2023-04-06T14:42:09;15.70;1.00
16879;DHT22;8556;52.218;9.884;2023-04-06T14:44:38;15.60;1.00
16879;DHT22;8556;52.218;9.884;2023-04-06T14:47:08;15.20;1.00
16879;DHT22;8556;52.218;9.884;2023-04-06T14:49:35;15.30;1.00
16879;DHT22;8556;52.218;9.884;2023-04-06T14:52:02;16.10;1.00
16879;DHT22;8556;52.218;9.884;2023-04-06T14:54:29;15.30;1.00
16879;DHT22;8556;52.218;9.884;2023-04-06T14:56:56;14.90;1.00
16879;DHT22;8556;52.218;9.884;2023-04-06T14:59:22;14.80;1.00
16879;DHT22;8556;52.218;9.884;2023-04-06T15:01:51;15.40;1.00
16879;DHT22;8556;52.218;9.884;2023-04-06T15:04:17;15.60;1.00
16879;DHT22;8556;52.218;9.884;2023-04-06T15:06:44;15.50;1.00
16879;DHT22;8556;52.218;9.884;2023-04-06T15:09:11;15.80;1.00
16879;DHT22;8556;52.218;9.884;2023-04-06T15:11:38;14.90;1.00
16879;DHT22;8556;52.218;9.884;2023-04-06T15:14:06;14.80;1.00
16879;DHT22;8556;52.218;9.884;2023-04-06T15:16:32;15.60;1.00
16879;DHT22;8556;52.218;9.884;2023-04-06T15:19:01;15.30;1.00
16879;DHT22;8556;52.218;9.884;2023-04-06T15:21:28;15.30;1.00
16879;DHT22;8556;52.218;9.884;2023-04-06T15:23:55;15.60;1.00
16879;DHT22;8556;52.218;9.884;2023-04-06T15:26:22;15.60;1.00
16879;DHT22;8556;52.218;9.884;2023-04-06T15:28:49;15.80;1.00
16879;DHT22;8556;52.218;9.884;2023-04-06T15:31:17;15.10;1.00
16879;DHT22;8556;52.218;9.884;2023-04-06T15:33:45;14.90;1.00
16879;DHT22;8556;52.218;9.884;2023-04-06T15:36:22;14.90;1.00
16879;DHT22;8556;52.218;9.884;2023-04-06T15:38:49;15.40;1.00
16879;DHT22;8556;52.218;9.884;2023-04-06T15:41:16;15.00;1.00
16879;DHT22;8556;52.218;9.884;2023-04-06T15:43:43;14.60;1.00
16879;DHT22;8556;52.218;9.884;2023-04-06T15:46:10;14.70;1.00
16879;DHT22;8556;52.218;9.884;2023-04-06T15:48:37;15.00;1.00
16879;DHT22;8556;52.218;9.884;2023-04-06T15:51:04;14.80;1.00
16879;DHT22;8556;52.218;9.884;2023-04-06T15:53:32;15.10;1.00
16879;DHT22;8556;52.218;9.884;2023-04-06T15:55:59;15.30;1.00